createdAt,value
2018-02-23T00:00:28.872Z,68.20
2018-02-23T00:02:56.363Z,68.40
2018-02-23T00:05:24.623Z,68.40
2018-02-23T00:07:52.124Z,68.40
2018-02-23T00:10:19.643Z,68.30
2018-02-23T00:12:47.141Z,68.20
2018-02-23T00:15:14.643Z,68.90
2018-02-23T00:17:42.144Z,68.40
2018-02-23T00:20:09.638Z,68.50
2018-02-23T00:22:42.028Z,68.50
2018-02-23T00:25:09.538Z,68.50
2018-02-23T00:27:37.046Z,68.10
2018-02-23T00:30:04.548Z,68.10
2018-02-23T00:32:32.816Z,68.20
2018-02-23T00:35:01.091Z,68.70
2018-02-23T00:37:29.378Z,68.30
2018-02-23T00:39:56.944Z,67.40
2018-02-23T00:42:24.447Z,67.30
2018-02-23T00:44:51.945Z,67.00
2018-02-23T00:47:20.219Z,66.80
2018-02-23T00:49:48.475Z,66.80
2018-02-23T00:52:15.970Z,66.80
2018-02-23T00:54:43.482Z,66.30
2018-02-23T00:57:10.982Z,66.20
2018-02-23T00:59:39.258Z,66.80
2018-02-23T01:02:06.764Z,66.80
2018-02-23T01:04:34.259Z,67.40
2018-02-23T01:07:02.519Z,66.90
2018-02-23T01:09:30.132Z,66.90
2018-02-23T01:11:57.902Z,67.20
2018-02-23T01:14:25.399Z,67.50
2018-02-23T01:16:52.893Z,67.70
2018-02-23T01:19:20.391Z,68.00
2018-02-23T01:21:47.901Z,67.90
2018-02-23T01:24:16.163Z,68.10
2018-02-23T01:26:44.435Z,68.30
2018-02-23T01:29:11.955Z,68.20
2018-02-23T01:31:39.456Z,68.40
2018-02-23T01:34:06.953Z,68.70
2018-02-23T01:36:34.460Z,68.20
2018-02-23T01:39:01.971Z,68.80
2018-02-23T01:41:29.502Z,68.90
2018-02-23T01:43:57.765Z,68.70
2018-02-23T01:46:25.335Z,68.70
2018-02-23T01:48:53.590Z,67.80
2018-02-23T01:51:21.087Z,67.70
2018-02-23T01:53:48.583Z,67.70
2018-02-23T01:56:16.083Z,68.20
2018-02-23T01:58:44.344Z,68.60
2018-02-23T02:01:12.611Z,68.60
2018-02-23T02:03:40.128Z,68.60
2018-02-23T02:06:07.655Z,68.60
2018-02-23T02:08:36.133Z,69.10
2018-02-23T02:11:04.411Z,69.20
2018-02-23T02:13:32.679Z,69.30
2018-02-23T02:16:00.179Z,69.20
2018-02-23T02:18:27.691Z,69.40
2018-02-23T02:20:55.195Z,69.40
2018-02-23T02:23:22.699Z,69.30
2018-02-23T02:25:50.204Z,69.30
2018-02-23T02:28:17.702Z,69.30
2018-02-23T02:30:45.199Z,69.40
2018-02-23T02:33:13.488Z,69.80
2018-02-23T02:35:40.991Z,69.80
2018-02-23T02:38:08.507Z,70.00
2018-02-23T02:40:36.063Z,69.60
2018-02-23T02:43:03.582Z,69.50
2018-02-23T02:45:31.083Z,69.60
2018-02-23T02:47:58.600Z,69.40
2018-02-23T02:50:26.100Z,69.20
2018-02-23T02:52:53.603Z,69.50
2018-02-23T02:55:21.109Z,69.30
2018-02-23T02:57:48.628Z,69.20
2018-02-23T03:00:16.135Z,69.30
2018-02-23T03:02:43.667Z,69.70
2018-02-23T03:05:11.956Z,70.10
2018-02-23T03:07:40.224Z,70.20
2018-02-23T03:10:08.511Z,70.50
2018-02-23T03:12:36.775Z,70.90
2018-02-23T03:15:05.054Z,71.10
2018-02-23T03:17:33.323Z,71.30
2018-02-23T03:20:00.925Z,71.30
2018-02-23T03:22:28.435Z,71.30
2018-02-23T03:24:56.698Z,71.50
2018-02-23T03:27:24.216Z,71.50
2018-02-23T03:29:51.724Z,71.60
2018-02-23T03:32:19.307Z,71.30
2018-02-23T03:34:47.577Z,71.50
2018-02-23T03:37:15.859Z,71.50
2018-02-23T03:39:44.143Z,71.60
2018-02-23T03:42:12.419Z,71.30
2018-02-23T03:44:39.939Z,71.30
2018-02-23T03:47:07.444Z,71.30
2018-02-23T03:49:34.952Z,71.30
2018-02-23T03:52:02.470Z,71.10
2018-02-23T03:54:29.975Z,71.00
2018-02-23T03:56:57.609Z,71.40
2018-02-23T03:59:25.126Z,71.30
2018-02-23T04:01:53.402Z,71.40
2018-02-23T04:04:21.684Z,71.80
2018-02-23T04:06:49.947Z,71.60
2018-02-23T04:09:18.210Z,71.60
2018-02-23T04:11:46.638Z,71.20
2018-02-23T04:14:14.139Z,71.30
2018-02-23T04:16:41.643Z,71.10
2018-02-23T04:19:09.150Z,71.90
2018-02-23T04:21:36.675Z,71.20
2018-02-23T04:24:04.175Z,71.10
2018-02-23T04:26:31.696Z,71.00
2018-02-23T04:28:59.207Z,71.00
2018-02-23T04:31:27.475Z,70.80
2018-02-23T04:33:54.980Z,70.70
2018-02-23T04:36:22.494Z,70.70
2018-02-23T04:38:50.769Z,70.30
2018-02-23T04:41:18.280Z,70.30
2018-02-23T04:43:45.790Z,70.20
2018-02-23T04:46:13.310Z,69.90
2018-02-23T04:48:40.823Z,68.90
2018-02-23T04:51:09.095Z,69.50
2018-02-23T04:53:37.362Z,69.50
2018-02-23T04:56:04.870Z,69.50
2018-02-23T04:58:32.375Z,69.50
2018-02-23T05:00:59.901Z,69.60
2018-02-23T05:03:27.407Z,69.80
2018-02-23T05:05:55.683Z,69.30
2018-02-23T05:08:23.992Z,69.70
2018-02-23T05:10:51.494Z,69.70
2018-02-23T05:13:19.006Z,70.10
2018-02-23T05:15:46.518Z,70.30
2018-02-23T05:18:14.034Z,70.20
2018-02-23T05:20:41.535Z,70.00
2018-02-23T05:23:09.038Z,69.70
2018-02-23T05:25:36.538Z,70.00
2018-02-23T05:28:04.055Z,69.10
2018-02-23T05:30:31.550Z,69.00
2018-02-23T05:32:59.071Z,69.40
2018-02-23T05:35:26.570Z,69.10
2018-02-23T05:37:54.085Z,68.90
2018-02-23T05:40:21.590Z,69.00
2018-02-23T05:42:49.100Z,69.00
2018-02-23T05:45:16.603Z,69.00
2018-02-23T05:47:44.113Z,68.80
2018-02-23T05:50:11.655Z,68.60
2018-02-23T05:52:39.959Z,68.50
2018-02-23T05:55:07.478Z,68.40
2018-02-23T05:57:35.743Z,68.50
2018-02-23T06:00:03.266Z,68.50
2018-02-23T06:02:30.782Z,68.60
2018-02-23T06:04:59.050Z,68.40
2018-02-23T06:07:27.328Z,68.10
2018-02-23T06:09:55.602Z,67.60
2018-02-23T06:12:23.879Z,67.70
2018-02-23T06:14:52.149Z,67.70
2018-02-23T06:17:26.007Z,67.60
2018-02-23T06:19:59.114Z,67.50
2018-02-23T06:22:26.618Z,67.60
2018-02-23T06:24:54.899Z,68.00
2018-02-23T06:27:23.164Z,68.00
2018-02-23T06:29:51.448Z,68.50
2018-02-23T06:32:19.748Z,68.60
2018-02-23T06:34:47.271Z,68.60
2018-02-23T06:37:14.770Z,69.00
2018-02-23T06:39:42.300Z,68.50
2018-02-23T06:42:10.574Z,68.50
2018-02-23T06:44:38.836Z,68.80
2018-02-23T06:47:12.279Z,69.60
2018-02-23T06:49:39.793Z,69.10
2018-02-23T06:52:07.341Z,68.40
2018-02-23T06:54:34.960Z,68.30
2018-02-23T06:57:02.481Z,68.00
2018-02-23T06:59:30.763Z,66.90
2018-02-23T07:01:59.171Z,68.40
2018-02-23T07:04:26.691Z,68.40
2018-02-23T07:06:54.983Z,67.40
2018-02-23T07:09:23.283Z,67.60
2018-02-23T07:11:50.794Z,67.60
2018-02-23T07:14:19.070Z,68.10
2018-02-23T07:16:46.571Z,66.90
2018-02-23T07:19:14.071Z,65.90
2018-02-23T07:21:41.584Z,65.80
2018-02-23T07:24:09.103Z,66.00
2018-02-23T07:26:36.610Z,65.90
2018-02-23T07:29:04.108Z,65.60
2018-02-23T07:31:31.622Z,65.80
2018-02-23T07:33:59.138Z,65.90
2018-02-23T07:36:26.663Z,66.10
2018-02-23T07:38:54.159Z,65.80
2018-02-23T07:41:21.679Z,65.80
2018-02-23T07:43:49.178Z,66.50
2018-02-23T07:46:16.780Z,65.70
2018-02-23T07:48:44.282Z,65.60
2018-02-23T07:51:11.811Z,65.20
2018-02-23T07:53:39.324Z,64.50
2018-02-23T07:56:07.588Z,64.20
2018-02-23T07:58:35.089Z,64.20
2018-02-23T08:01:02.599Z,64.40
2018-02-23T08:03:30.867Z,63.70
2018-02-23T08:05:58.372Z,63.70
2018-02-23T08:08:25.871Z,63.20
2018-02-23T08:10:53.363Z,63.40
2018-02-23T08:13:21.702Z,63.20
2018-02-23T08:15:49.208Z,63.10
2018-02-23T08:18:17.474Z,63.90
2018-02-23T08:20:45.743Z,64.40
2018-02-23T08:23:13.325Z,64.30
2018-02-23T08:25:40.923Z,63.00
2018-02-23T08:28:08.432Z,63.40
2018-02-23T08:30:36.701Z,62.80
2018-02-23T08:33:04.194Z,62.70
2018-02-23T08:35:31.706Z,62.60
2018-02-23T08:37:59.207Z,63.00
2018-02-23T08:40:26.720Z,63.20
2018-02-23T08:42:55.744Z,62.40
2018-02-23T08:45:24.007Z,61.80
2018-02-23T08:47:52.272Z,62.40
2018-02-23T08:50:19.780Z,62.30
2018-02-23T08:52:47.306Z,62.10
2018-02-23T08:55:15.564Z,61.90
2018-02-23T08:57:43.063Z,61.90
2018-02-23T09:00:19.243Z,61.60
2018-02-23T09:02:46.752Z,62.50
2018-02-23T09:05:14.248Z,62.60
2018-02-23T09:07:41.756Z,62.40
2018-02-23T09:10:09.276Z,62.30
2018-02-23T09:12:36.810Z,61.90
2018-02-23T09:15:04.311Z,61.30
2018-02-23T09:17:31.823Z,60.90
2018-02-23T09:20:00.091Z,61.30
2018-02-23T09:22:28.370Z,60.60
2018-02-23T09:24:56.631Z,60.40
2018-02-23T09:27:24.895Z,60.10
2018-02-23T09:29:52.395Z,60.00
2018-02-23T09:45:42.284Z,59.40
2018-02-23T09:48:09.810Z,59.80
2018-02-23T09:50:38.071Z,59.70
2018-02-23T09:53:05.581Z,59.70
2018-02-23T09:55:34.095Z,59.40
2018-02-23T09:58:01.583Z,60.40
2018-02-23T10:00:29.866Z,58.70
2018-02-23T10:02:58.135Z,58.60
2018-02-23T10:05:26.397Z,59.10
2018-02-23T10:07:53.895Z,59.10
2018-02-23T10:10:21.395Z,59.20
2018-02-23T10:12:48.893Z,59.50
2018-02-23T10:15:16.399Z,59.10
2018-02-23T10:17:43.898Z,58.60
2018-02-23T10:20:12.163Z,58.90
2018-02-23T10:22:40.430Z,58.60
2018-02-23T10:25:07.949Z,58.60
2018-02-23T10:27:35.459Z,58.50
2018-02-23T10:30:03.740Z,59.00
2018-02-23T10:32:32.011Z,57.90
2018-02-23T10:35:00.271Z,58.40
2018-02-23T10:37:27.779Z,58.40
2018-02-23T10:39:55.274Z,58.60
2018-02-23T10:42:22.784Z,58.50
2018-02-23T10:44:50.287Z,58.70
2018-02-23T10:47:17.794Z,58.90
2018-02-23T10:49:46.057Z,58.20
2018-02-23T10:52:14.327Z,57.30
2018-02-23T10:54:41.914Z,57.30
2018-02-23T10:57:09.416Z,57.10
2018-02-23T10:59:36.927Z,57.10
2018-02-23T11:02:04.425Z,56.80
2018-02-23T11:04:31.922Z,57.90
2018-02-23T11:07:00.207Z,57.60
2018-02-23T11:09:28.495Z,57.20
2018-02-23T11:11:56.015Z,57.10
2018-02-23T11:14:25.626Z,57.40
2018-02-23T11:16:53.139Z,57.30
2018-02-23T11:19:20.641Z,57.70
2018-02-23T11:21:48.933Z,57.20
2018-02-23T11:24:17.208Z,58.60
2018-02-23T11:26:45.483Z,58.20
2018-02-23T11:29:13.760Z,58.30
2018-02-23T11:31:41.257Z,58.30
2018-02-23T11:34:08.768Z,59.20
2018-02-23T11:36:36.267Z,58.70
2018-02-23T11:39:03.808Z,58.30
2018-02-23T11:41:32.083Z,58.00
2018-02-23T11:44:00.354Z,57.40
2018-02-23T11:46:28.654Z,57.20
2018-02-23T11:48:56.147Z,57.20
2018-02-23T11:51:23.665Z,57.10
2018-02-23T11:53:51.182Z,57.90
2018-02-23T11:56:18.686Z,58.40
2018-02-23T11:58:46.207Z,57.90
2018-02-23T12:01:13.703Z,58.20
2018-02-23T12:03:41.202Z,58.60
2018-02-23T12:06:08.699Z,58.70
2018-02-23T12:08:36.981Z,57.40
2018-02-23T12:11:05.247Z,57.70
2018-02-23T12:13:33.511Z,57.00
2018-02-23T12:16:01.023Z,57.10
2018-02-23T12:18:28.528Z,57.80
2018-02-23T12:20:56.031Z,57.70
2018-02-23T12:23:23.535Z,57.50
2018-02-23T12:25:51.032Z,58.10
2018-02-23T12:28:19.286Z,57.40
2018-02-23T12:30:46.893Z,57.50
2018-02-23T12:33:14.387Z,58.80
2018-02-23T12:35:41.901Z,58.90
2018-02-23T12:38:09.416Z,59.20
2018-02-23T12:40:36.925Z,59.00
2018-02-23T12:43:04.439Z,58.20
2018-02-23T12:45:32.712Z,58.40
2018-02-23T12:48:00.985Z,58.40
2018-02-23T12:50:28.491Z,58.50
2018-02-23T12:52:55.995Z,58.80
2018-02-23T12:55:23.492Z,58.50
2018-02-23T12:57:51.015Z,58.50
2018-02-23T13:00:18.560Z,58.40
2018-02-23T13:02:46.084Z,57.00
2018-02-23T13:05:13.606Z,56.50
2018-02-23T13:07:41.870Z,57.50
2018-02-23T13:10:09.375Z,57.40
2018-02-23T13:12:36.893Z,57.50
2018-02-23T13:15:10.187Z,57.40
2018-02-23T13:17:37.678Z,57.40
2018-02-23T13:20:05.196Z,58.00
2018-02-23T13:22:32.690Z,57.10
2018-02-23T13:25:00.237Z,57.80
2018-02-23T13:27:28.496Z,56.40
2018-02-23T13:29:55.997Z,56.40
2018-02-23T13:32:23.491Z,56.40
2018-02-23T13:34:50.987Z,57.70
2018-02-23T13:37:19.252Z,56.30
2018-02-23T13:39:53.120Z,57.30
2018-02-23T13:42:23.319Z,57.30
2018-02-23T13:44:50.839Z,57.90
2018-02-23T13:47:18.355Z,57.70
2018-02-23T13:49:45.852Z,58.00
2018-02-23T13:52:13.376Z,58.60
2018-02-23T13:54:40.871Z,58.90
2018-02-23T13:57:09.143Z,59.30
2018-02-23T13:59:36.664Z,59.30
2018-02-23T14:02:04.162Z,59.20
2018-02-23T14:04:31.667Z,58.60
2018-02-23T14:07:04.787Z,58.60
2018-02-23T14:09:32.279Z,58.40
2018-02-23T14:12:00.544Z,58.40
2018-02-23T14:14:28.033Z,58.40
2018-02-23T14:16:55.527Z,59.70
2018-02-23T14:19:23.039Z,59.10
2018-02-23T14:21:51.304Z,58.80
2018-02-23T14:24:19.570Z,59.30
2018-02-23T14:26:47.893Z,59.50
2018-02-23T14:29:15.402Z,59.10
2018-02-23T14:31:42.915Z,58.60
2018-02-23T14:34:10.427Z,59.10
2018-02-23T14:36:38.694Z,59.10
2018-02-23T14:39:06.200Z,59.00
2018-02-23T14:41:33.720Z,59.20
2018-02-23T14:44:02.003Z,60.80
2018-02-23T14:46:30.267Z,61.00
2018-02-23T14:49:10.484Z,61.90
2018-02-23T14:51:37.986Z,61.60
2018-02-23T14:54:05.506Z,61.70
2018-02-23T14:56:33.007Z,61.60
2018-02-23T14:59:01.296Z,60.40
2018-02-23T15:01:29.583Z,60.30
2018-02-23T15:03:57.086Z,60.30
2018-02-23T15:06:24.613Z,60.70
2018-02-23T15:08:52.111Z,60.90
2018-02-23T15:11:19.610Z,60.40
2018-02-23T15:13:47.907Z,60.80
2018-02-23T15:16:15.411Z,60.80
2018-02-23T15:18:42.927Z,61.00
2018-02-23T15:21:10.418Z,61.50
2018-02-23T15:23:37.919Z,61.40
2018-02-23T15:26:06.218Z,62.50
2018-02-23T15:28:33.723Z,62.30
2018-02-23T15:31:14.825Z,62.50
2018-02-23T15:33:43.101Z,62.90
2018-02-23T15:36:11.367Z,62.50
2018-02-23T15:38:39.639Z,62.30
2018-02-23T15:41:07.175Z,62.20
2018-02-23T15:43:34.678Z,62.40
2018-02-23T15:46:02.975Z,62.30
2018-02-23T15:48:33.986Z,62.20
2018-02-23T15:51:07.896Z,62.20
2018-02-23T15:53:36.174Z,62.30
2018-02-23T15:56:04.445Z,63.10
2018-02-23T15:58:36.268Z,63.40
2018-02-23T16:01:03.779Z,63.20
2018-02-23T16:03:31.290Z,63.70
2018-02-23T16:05:58.791Z,63.90
2018-02-23T16:08:27.056Z,63.90
2018-02-23T16:10:55.323Z,64.30
2018-02-23T16:13:23.611Z,65.20
2018-02-23T16:15:51.893Z,65.60
2018-02-23T16:18:20.155Z,66.00
2018-02-23T16:20:48.429Z,66.60
2018-02-23T16:23:15.927Z,65.80
2018-02-23T16:25:43.457Z,65.50
2018-02-23T16:28:11.725Z,65.70
2018-02-23T16:30:40.012Z,65.60
2018-02-23T16:33:08.288Z,65.90
2018-02-23T16:35:36.550Z,66.10
2018-02-23T16:38:04.828Z,66.60
2018-02-23T16:40:33.087Z,66.70
2018-02-23T16:43:00.602Z,66.70
2018-02-23T16:45:28.111Z,66.20
2018-02-23T16:47:56.387Z,65.20
2018-02-23T16:50:24.650Z,64.70
2018-02-23T16:52:52.147Z,64.70
2018-02-23T16:55:20.412Z,65.90
2018-02-23T16:57:48.677Z,65.30
2018-02-23T17:00:16.206Z,65.30
2018-02-23T17:02:43.719Z,64.70
2018-02-23T17:05:12.000Z,64.60
2018-02-23T17:07:39.494Z,64.60
2018-02-23T17:10:06.989Z,64.50
2018-02-23T17:12:34.504Z,64.00
2018-02-23T17:15:02.049Z,64.40
2018-02-23T17:17:29.556Z,64.90
2018-02-23T17:19:57.071Z,65.20
2018-02-23T17:22:24.562Z,65.40
2018-02-23T17:24:52.083Z,72.00
2018-02-23T17:27:19.580Z,65.50
2018-02-23T17:29:47.076Z,64.30
2018-02-23T17:32:15.343Z,63.00
2018-02-23T17:34:43.606Z,62.90
2018-02-23T17:37:11.109Z,62.80
2018-02-23T17:39:38.614Z,63.20
2018-02-23T17:42:06.116Z,63.40
2018-02-23T17:44:33.611Z,64.20
2018-02-23T17:47:01.107Z,63.70
2018-02-23T17:49:29.388Z,64.10
2018-02-23T17:51:57.660Z,64.50
2018-02-23T17:54:25.922Z,64.30
2018-02-23T17:56:53.414Z,64.30
2018-02-23T17:59:20.931Z,64.50
2018-02-23T18:01:48.435Z,65.00
2018-02-23T18:04:15.928Z,65.10
2018-02-23T18:06:43.427Z,65.30
2018-02-23T18:09:11.701Z,64.80
2018-02-23T18:11:39.987Z,64.20
2018-02-23T18:14:08.267Z,65.00
2018-02-23T18:16:36.532Z,64.90
2018-02-23T18:19:04.804Z,65.20
2018-02-23T18:21:32.310Z,65.10
2018-02-23T18:23:59.804Z,65.40
2018-02-23T18:26:27.292Z,65.10
2018-02-23T18:28:55.551Z,65.20
2018-02-23T18:31:23.053Z,65.20
2018-02-23T18:33:50.561Z,65.20
2018-02-23T18:36:18.071Z,65.00
2018-02-23T18:38:45.603Z,64.90
2018-02-23T18:41:13.863Z,65.40
2018-02-23T18:43:41.370Z,65.40
2018-02-23T18:46:08.870Z,65.00
2018-02-23T18:48:37.155Z,64.30
2018-02-23T18:51:04.647Z,64.30
2018-02-23T18:53:32.143Z,64.80
2018-02-23T18:55:59.643Z,65.10
2018-02-23T18:58:27.907Z,65.10
2018-02-23T19:00:55.410Z,65.10
2018-02-23T19:03:22.935Z,65.50
2018-02-23T19:05:51.230Z,65.00
2018-02-23T19:08:18.731Z,65.00
2018-02-23T19:10:46.234Z,65.40
2018-02-23T19:13:15.725Z,64.60
2018-02-23T19:15:44.088Z,65.10
2018-02-23T19:18:11.605Z,65.00
2018-02-23T19:20:39.094Z,65.40
2018-02-23T19:23:06.641Z,65.60
2018-02-23T19:25:34.146Z,65.90
2018-02-23T19:28:02.476Z,65.20
2018-02-23T19:30:29.999Z,65.20
2018-02-23T19:32:57.502Z,65.30
2018-02-23T19:35:25.009Z,65.50
2018-02-23T19:37:53.328Z,65.00
2018-02-23T19:40:20.845Z,65.00
2018-02-23T19:42:49.136Z,65.00
2018-02-23T19:45:16.715Z,65.00
2018-02-23T19:47:44.207Z,65.00
2018-02-23T19:50:11.727Z,64.90
2018-02-23T19:52:39.234Z,65.00
2018-02-23T19:55:06.748Z,64.80
2018-02-23T19:57:34.293Z,64.90
2018-02-23T20:00:01.840Z,64.80
2018-02-23T20:02:29.344Z,64.80
2018-02-23T20:04:56.848Z,64.90
2018-02-23T20:07:25.172Z,64.80
2018-02-23T20:09:52.749Z,64.70
2018-02-23T20:12:20.267Z,64.40
2018-02-23T20:14:47.789Z,64.20
2018-02-23T20:17:16.082Z,64.70
2018-02-23T20:19:43.607Z,64.70
2018-02-23T20:22:11.179Z,64.90
2018-02-23T20:24:38.672Z,64.30
2018-02-23T20:27:06.224Z,63.70
2018-02-23T20:29:33.783Z,63.50
2018-02-23T20:32:01.432Z,63.80
2018-02-23T20:34:29.729Z,64.80
2018-02-23T20:36:57.226Z,64.70
2018-02-23T20:39:24.742Z,63.70
2018-02-23T20:41:52.286Z,64.10
2018-02-23T20:44:20.576Z,64.00
2018-02-23T20:46:48.103Z,63.90
2018-02-23T20:49:16.387Z,63.40
2018-02-23T20:51:44.652Z,64.30
2018-02-23T20:54:12.165Z,64.30
2018-02-23T20:56:39.706Z,64.60
2018-02-23T20:59:07.230Z,64.40
2018-02-23T21:01:34.728Z,64.00
2018-02-23T21:04:02.240Z,64.00
2018-02-23T21:06:29.759Z,63.90
2018-02-23T21:08:57.263Z,63.60
2018-02-23T21:11:24.779Z,63.50
2018-02-23T21:13:52.287Z,62.50
2018-02-23T21:16:19.792Z,62.50
2018-02-23T21:18:47.344Z,62.70
2018-02-23T21:21:14.863Z,62.70
2018-02-23T21:23:43.180Z,63.90
2018-02-23T21:26:10.715Z,63.20
2018-02-23T21:28:38.995Z,63.00
2018-02-23T21:31:06.560Z,63.00
2018-02-23T21:33:34.075Z,63.00
2018-02-23T21:36:01.586Z,63.10
2018-02-23T21:38:29.093Z,63.30
2018-02-23T21:40:56.604Z,62.90
2018-02-23T21:43:24.104Z,63.00
2018-02-23T21:45:51.609Z,62.80
2018-02-23T21:48:19.115Z,62.50
2018-02-23T21:50:46.616Z,62.20
2018-02-23T21:53:14.891Z,62.10
2018-02-23T21:55:43.160Z,62.40
2018-02-23T21:58:11.427Z,62.60
2018-02-23T22:00:38.939Z,62.60
2018-02-23T22:03:06.442Z,63.00
2018-02-23T22:05:33.944Z,63.00
2018-02-23T22:08:04.303Z,63.80
2018-02-23T22:10:31.814Z,63.10
2018-02-23T22:12:59.317Z,63.20
2018-02-23T22:15:26.815Z,62.70
2018-02-23T22:17:55.098Z,62.40
2018-02-23T22:20:23.375Z,62.60
2018-02-23T22:22:51.650Z,63.10
2018-02-23T22:25:19.919Z,63.00
2018-02-23T22:27:48.219Z,62.50
2018-02-23T22:30:15.775Z,62.40
2018-02-23T22:32:43.261Z,62.40
2018-02-23T22:35:10.781Z,62.30
2018-02-23T22:37:39.046Z,62.00
2018-02-23T22:40:07.320Z,61.40
2018-02-23T22:42:35.590Z,61.80
2018-02-23T22:45:03.860Z,62.60
2018-02-23T22:47:31.355Z,61.80
2018-02-23T22:49:58.850Z,61.50
2018-02-23T22:52:26.362Z,61.50
2018-02-23T22:54:54.635Z,60.40
2018-02-23T22:57:22.903Z,60.00
2018-02-23T22:59:51.179Z,60.50
2018-02-23T23:02:19.459Z,60.30
2018-02-23T23:04:47.732Z,60.00
2018-02-23T23:07:15.999Z,59.80
2018-02-23T23:09:43.497Z,59.80
2018-02-23T23:12:11.067Z,60.60
2018-02-23T23:14:39.304Z,58.40
2018-02-23T23:17:07.600Z,58.40
2018-02-23T23:19:35.110Z,58.40
2018-02-23T23:22:02.615Z,58.60
2018-02-23T23:24:30.139Z,57.80
2018-02-23T23:26:57.663Z,58.30
2018-02-23T23:29:25.174Z,58.20
2018-02-23T23:31:53.439Z,57.70
2018-02-23T23:34:21.015Z,57.60
2018-02-23T23:36:49.279Z,57.60
2018-02-23T23:39:17.555Z,57.70
2018-02-23T23:41:45.836Z,57.70
2018-02-23T23:44:14.115Z,58.30
2018-02-23T23:46:42.395Z,58.10
2018-02-23T23:49:10.662Z,58.30
2018-02-23T23:51:38.943Z,58.30
2018-02-23T23:54:07.206Z,58.50
2018-02-23T23:56:34.707Z,58.50
2018-02-23T23:59:02.203Z,58.70
